sensor_id;sensor_type;location;lat;lon;timestamp;pressure;altitude;pressure_sealevel;temperature;humidity
69223;BME280;56514;51.816;-0.026;2023-02-21T00:03:19;101550.63;;;11.58;69.59
69223;BME280;56514;51.816;-0.026;2023-02-21T00:06:47;101546.09;;;11.60;69.61
69223;BME280;56514;51.816;-0.026;2023-02-21T00:10:12;101552.84;;;11.66;69.24
69223;BME280;56514;51.816;-0.026;2023-02-21T00:13:41;101548.59;;;11.63;69.41
69223;BME280;56514;51.816;-0.026;2023-02-21T00:17:10;101549.38;;;11.65;69.23
69223;BME280;56514;51.816;-0.026;2023-02-21T00:20:34;101547.97;;;11.58;69.71
69223;BME280;56514;51.816;-0.026;2023-02-21T00:24:03;101545.63;;;11.38;69.96
69223;BME280;56514;51.816;-0.026;2023-02-21T00:27:31;101541.19;;;11.54;69.35
69223;BME280;56514;51.816;-0.026;2023-02-21T00:30:59;101540.94;;;11.43;69.96
69223;BME280;56514;51.816;-0.026;2023-02-21T00:34:27;101537.94;;;11.49;69.60
69223;BME280;56514;51.816;-0.026;2023-02-21T00:37:55;101545.34;;;11.58;69.26
69223;BME280;56514;51.816;-0.026;2023-02-21T00:41:23;101538.91;;;11.48;69.05
69223;BME280;56514;51.816;-0.026;2023-02-21T00:44:51;101534.13;;;11.55;69.10
69223;BME280;56514;51.816;-0.026;2023-02-21T00:47:56;101538.91;;;11.48;69.29
69223;BME280;56514;51.816;-0.026;2023-02-21T00:50:59;101533.78;;;11.45;69.30
69223;BME280;56514;51.816;-0.026;2023-02-21T00:54:03;101527.84;;;11.42;69.55
69223;BME280;56514;51.816;-0.026;2023-02-21T00:57:07;101520.81;;;11.56;69.04
69223;BME280;56514;51.816;-0.026;2023-02-21T01:00:17;101524.31;;;11.41;69.67
69223;BME280;56514;51.816;-0.026;2023-02-21T01:03:21;101524.16;;;11.44;69.76
69223;BME280;56514;51.816;-0.026;2023-02-21T01:06:25;101513.38;;;11.33;69.95
69223;BME280;56514;51.816;-0.026;2023-02-21T01:09:33;101510.16;;;11.28;70.43
69223;BME280;56514;51.816;-0.026;2023-02-21T01:12:37;101496.75;;;11.31;70.35
69223;BME280;56514;51.816;-0.026;2023-02-21T01:15:41;101493.00;;;11.35;70.42
69223;BME280;56514;51.816;-0.026;2023-02-21T01:18:45;101487.56;;;11.52;69.25
69223;BME280;56514;51.816;-0.026;2023-02-21T01:21:49;101479.41;;;11.41;69.81
69223;BME280;56514;51.816;-0.026;2023-02-21T01:24:53;101485.56;;;11.42;69.85
69223;BME280;56514;51.816;-0.026;2023-02-21T01:27:56;101468.38;;;11.35;69.55
69223;BME280;56514;51.816;-0.026;2023-02-21T01:31:00;101458.81;;;11.32;70.11
69223;BME280;56514;51.816;-0.026;2023-02-21T01:34:04;101463.94;;;11.35;69.85
69223;BME280;56514;51.816;-0.026;2023-02-21T01:37:08;101464.84;;;11.20;70.03
69223;BME280;56514;51.816;-0.026;2023-02-21T01:40:15;101465.88;;;11.18;70.33
69223;BME280;56514;51.816;-0.026;2023-02-21T01:43:21;101468.53;;;11.18;70.02
69223;BME280;56514;51.816;-0.026;2023-02-21T01:46:25;101458.91;;;11.17;70.01
69223;BME280;56514;51.816;-0.026;2023-02-21T01:49:30;101457.22;;;11.00;70.41
69223;BME280;56514;51.816;-0.026;2023-02-21T01:52:37;101456.50;;;10.98;70.65
69223;BME280;56514;51.816;-0.026;2023-02-21T01:55:42;101450.06;;;11.02;70.55
69223;BME280;56514;51.816;-0.026;2023-02-21T01:58:49;101462.84;;;10.94;70.81
69223;BME280;56514;51.816;-0.026;2023-02-21T02:02:01;101470.66;;;11.11;70.48
69223;BME280;56514;51.816;-0.026;2023-02-21T02:05:08;101464.38;;;11.14;69.85
69223;BME280;56514;51.816;-0.026;2023-02-21T02:08:16;101469.16;;;11.07;69.80
69223;BME280;56514;51.816;-0.026;2023-02-21T02:27:41;101468.53;;;10.73;71.14
69223;BME280;56514;51.816;-0.026;2023-02-21T02:33:53;101453.97;;;10.81;70.76
69223;BME280;56514;51.816;-0.026;2023-02-21T02:36:49;101452.97;;;10.68;71.58
69223;BME280;56514;51.816;-0.026;2023-02-21T02:45:50;101453.13;;;10.65;71.13
69223;BME280;56514;51.816;-0.026;2023-02-21T02:48:38;101456.53;;;10.51;71.78
69223;BME280;56514;51.816;-0.026;2023-02-21T02:51:25;101442.50;;;10.51;71.94
69223;BME280;56514;51.816;-0.026;2023-02-21T02:54:10;101444.38;;;10.64;71.67
69223;BME280;56514;51.816;-0.026;2023-02-21T02:56:56;101444.81;;;10.57;72.00
69223;BME280;56514;51.816;-0.026;2023-02-21T02:59:45;101434.91;;;10.60;72.10
69223;BME280;56514;51.816;-0.026;2023-02-21T03:02:45;101431.59;;;10.73;71.01
69223;BME280;56514;51.816;-0.026;2023-02-21T03:11:46;101429.22;;;10.68;71.76
69223;BME280;56514;51.816;-0.026;2023-02-21T03:15:14;101423.53;;;10.60;71.97
69223;BME280;56514;51.816;-0.026;2023-02-21T03:17:56;101428.50;;;10.80;71.18
69223;BME280;56514;51.816;-0.026;2023-02-21T03:20:49;101417.28;;;10.77;70.93
69223;BME280;56514;51.816;-0.026;2023-02-21T03:23:37;101421.63;;;10.62;71.40
69223;BME280;56514;51.816;-0.026;2023-02-21T03:26:25;101416.69;;;10.56;72.02
69223;BME280;56514;51.816;-0.026;2023-02-21T03:29:11;101411.13;;;10.46;72.36
69223;BME280;56514;51.816;-0.026;2023-02-21T03:32:17;101405.41;;;10.54;71.92
69223;BME280;56514;51.816;-0.026;2023-02-21T03:35:05;101407.44;;;10.49;72.33
69223;BME280;56514;51.816;-0.026;2023-02-21T03:37:52;101415.44;;;10.63;71.47
69223;BME280;56514;51.816;-0.026;2023-02-21T03:40:37;101414.91;;;10.56;71.56
69223;BME280;56514;51.816;-0.026;2023-02-21T03:43:22;101417.66;;;10.55;72.07
69223;BME280;56514;51.816;-0.026;2023-02-21T03:46:07;101426.09;;;10.46;72.37
69223;BME280;56514;51.816;-0.026;2023-02-21T03:48:52;101421.75;;;10.45;72.26
69223;BME280;56514;51.816;-0.026;2023-02-21T03:51:37;101424.13;;;10.34;72.39
69223;BME280;56514;51.816;-0.026;2023-02-21T03:54:21;101414.19;;;10.23;72.66
69223;BME280;56514;51.816;-0.026;2023-02-21T03:57:06;101418.94;;;10.17;73.18
69223;BME280;56514;51.816;-0.026;2023-02-21T03:59:51;101417.16;;;10.17;73.19
69223;BME280;56514;51.816;-0.026;2023-02-21T04:02:36;101418.94;;;10.17;72.88
69223;BME280;56514;51.816;-0.026;2023-02-21T04:05:21;101412.97;;;10.13;72.96
69223;BME280;56514;51.816;-0.026;2023-02-21T04:08:06;101414.69;;;10.14;72.96
69223;BME280;56514;51.816;-0.026;2023-02-21T04:10:51;101424.47;;;10.12;73.05
69223;BME280;56514;51.816;-0.026;2023-02-21T04:13:35;101412.41;;;10.08;73.66
69223;BME280;56514;51.816;-0.026;2023-02-21T04:16:20;101411.47;;;10.09;73.39
69223;BME280;56514;51.816;-0.026;2023-02-21T04:19:05;101414.56;;;10.00;73.38
69223;BME280;56514;51.816;-0.026;2023-02-21T04:21:49;101407.53;;;10.01;73.64
69223;BME280;56514;51.816;-0.026;2023-02-21T04:24:34;101403.78;;;10.05;73.30
69223;BME280;56514;51.816;-0.026;2023-02-21T04:27:19;101394.16;;;10.04;73.29
69223;BME280;56514;51.816;-0.026;2023-02-21T04:30:04;101398.91;;;9.97;73.58
69223;BME280;56514;51.816;-0.026;2023-02-21T04:32:49;101404.34;;;9.94;73.46
69223;BME280;56514;51.816;-0.026;2023-02-21T04:35:35;101399.41;;;9.88;73.79
69223;BME280;56514;51.816;-0.026;2023-02-21T04:38:20;101399.69;;;9.99;73.31
69223;BME280;56514;51.816;-0.026;2023-02-21T04:41:05;101402.16;;;10.02;73.15
69223;BME280;56514;51.816;-0.026;2023-02-21T04:43:50;101407.13;;;10.08;73.16
69223;BME280;56514;51.816;-0.026;2023-02-21T04:46:36;101408.25;;;9.87;73.93
69223;BME280;56514;51.816;-0.026;2023-02-21T04:49:21;101400.34;;;9.87;73.91
69223;BME280;56514;51.816;-0.026;2023-02-21T04:52:09;101395.06;;;9.87;73.75
69223;BME280;56514;51.816;-0.026;2023-02-21T04:54:54;101394.06;;;9.90;73.95
69223;BME280;56514;51.816;-0.026;2023-02-21T04:57:39;101397.47;;;9.92;73.83
69223;BME280;56514;51.816;-0.026;2023-02-21T05:00:24;101393.13;;;9.91;73.40
69223;BME280;56514;51.816;-0.026;2023-02-21T05:03:09;101393.66;;;9.97;73.33
69223;BME280;56514;51.816;-0.026;2023-02-21T05:05:54;101396.19;;;9.99;73.72
69223;BME280;56514;51.816;-0.026;2023-02-21T05:08:39;101399.78;;;9.98;73.91
69223;BME280;56514;51.816;-0.026;2023-02-21T05:11:24;101394.50;;;9.98;73.73
69223;BME280;56514;51.816;-0.026;2023-02-21T05:14:09;101400.69;;;9.97;73.74
69223;BME280;56514;51.816;-0.026;2023-02-21T05:16:55;101405.22;;;9.95;73.63
69223;BME280;56514;51.816;-0.026;2023-02-21T05:19:39;101411.31;;;9.95;73.22
69223;BME280;56514;51.816;-0.026;2023-02-21T05:22:24;101411.22;;;9.97;73.27
69223;BME280;56514;51.816;-0.026;2023-02-21T05:25:20;101408.44;;;10.00;72.88
69223;BME280;56514;51.816;-0.026;2023-02-21T05:28:05;101412.44;;;9.91;73.49
69223;BME280;56514;51.816;-0.026;2023-02-21T05:30:50;101412.59;;;9.88;73.33
69223;BME280;56514;51.816;-0.026;2023-02-21T05:33:35;101414.38;;;9.88;73.33
69223;BME280;56514;51.816;-0.026;2023-02-21T05:36:20;101410.97;;;9.86;73.26
69223;BME280;56514;51.816;-0.026;2023-02-21T05:39:06;101407.41;;;9.87;73.41
69223;BME280;56514;51.816;-0.026;2023-02-21T05:41:51;101406.13;;;9.94;73.15
69223;BME280;56514;51.816;-0.026;2023-02-21T05:44:36;101404.88;;;10.01;73.16
69223;BME280;56514;51.816;-0.026;2023-02-21T05:47:22;101399.44;;;10.04;72.73
69223;BME280;56514;51.816;-0.026;2023-02-21T05:50:08;101399.31;;;10.07;72.63
69223;BME280;56514;51.816;-0.026;2023-02-21T05:52:53;101393.47;;;10.00;72.78
69223;BME280;56514;51.816;-0.026;2023-02-21T05:55:38;101384.78;;;9.98;72.99
69223;BME280;56514;51.816;-0.026;2023-02-21T05:58:23;101389.22;;;9.98;72.79
69223;BME280;56514;51.816;-0.026;2023-02-21T06:01:07;101397.06;;;9.99;72.97
69223;BME280;56514;51.816;-0.026;2023-02-21T06:03:52;101389.22;;;9.98;72.76
69223;BME280;56514;51.816;-0.026;2023-02-21T06:06:37;101388.38;;;9.97;72.45
69223;BME280;56514;51.816;-0.026;2023-02-21T06:09:22;101385.91;;;9.94;72.68
69223;BME280;56514;51.816;-0.026;2023-02-21T06:12:07;101391.88;;;9.98;72.27
69223;BME280;56514;51.816;-0.026;2023-02-21T06:14:51;101389.22;;;9.98;72.72
69223;BME280;56514;51.816;-0.026;2023-02-21T06:17:37;101385.81;;;9.96;72.84
69223;BME280;56514;51.816;-0.026;2023-02-21T06:20:22;101390.06;;;9.98;72.77
69223;BME280;56514;51.816;-0.026;2023-02-21T06:23:07;101389.06;;;10.01;73.15
69223;BME280;56514;51.816;-0.026;2023-02-21T06:25:52;101397.56;;;10.06;72.62
69223;BME280;56514;51.816;-0.026;2023-02-21T06:28:37;101390.44;;;10.08;72.07
69223;BME280;56514;51.816;-0.026;2023-02-21T06:31:22;101386.88;;;10.09;72.38
69223;BME280;56514;51.816;-0.026;2023-02-21T06:34:07;101384.22;;;10.09;72.47
69223;BME280;56514;51.816;-0.026;2023-02-21T06:36:53;101384.53;;;10.03;72.35
69223;BME280;56514;51.816;-0.026;2023-02-21T06:39:38;101386.25;;;10.04;72.35
69223;BME280;56514;51.816;-0.026;2023-02-21T06:42:24;101378.53;;;10.01;72.33
69223;BME280;56514;51.816;-0.026;2023-02-21T06:45:08;101382.16;;;9.98;72.92
69223;BME280;56514;51.816;-0.026;2023-02-21T06:47:56;101376.88;;;9.98;73.06
69223;BME280;56514;51.816;-0.026;2023-02-21T06:50:41;101375.97;;;9.99;73.29
69223;BME280;56514;51.816;-0.026;2023-02-21T06:53:26;101377.75;;;9.99;72.88
69223;BME280;56514;51.816;-0.026;2023-02-21T06:56:11;101371.69;;;9.97;72.97
69223;BME280;56514;51.816;-0.026;2023-02-21T06:58:56;101384.88;;;9.97;73.20
69223;BME280;56514;51.816;-0.026;2023-02-21T07:01:41;101382.16;;;9.98;72.74
69223;BME280;56514;51.816;-0.026;2023-02-21T07:04:28;101375.13;;;9.99;73.04
69223;BME280;56514;51.816;-0.026;2023-02-21T07:07:13;101379.28;;;10.03;72.93
69223;BME280;56514;51.816;-0.026;2023-02-21T07:09:59;101382.38;;;10.11;72.68
69223;BME280;56514;51.816;-0.026;2023-02-21T07:12:44;101381.25;;;10.15;72.94
69223;BME280;56514;51.816;-0.026;2023-02-21T07:15:29;101377.72;;;10.16;72.33
69223;BME280;56514;51.816;-0.026;2023-02-21T07:18:14;101374.97;;;10.17;72.34
69223;BME280;56514;51.816;-0.026;2023-02-21T07:20:59;101372.78;;;10.10;72.20
69223;BME280;56514;51.816;-0.026;2023-02-21T07:23:46;101384.38;;;10.06;72.70
69223;BME280;56514;51.816;-0.026;2023-02-21T07:26:34;101376.41;;;10.07;72.78
69223;BME280;56514;51.816;-0.026;2023-02-21T07:29:21;101384.72;;;10.00;72.95
69223;BME280;56514;51.816;-0.026;2023-02-21T07:32:05;101390.16;;;9.97;72.30
69223;BME280;56514;51.816;-0.026;2023-02-21T07:34:50;101386.78;;;9.95;72.76
69223;BME280;56514;51.816;-0.026;2023-02-21T07:37:35;101388.28;;;9.99;73.07
69223;BME280;56514;51.816;-0.026;2023-02-21T07:40:20;101394.03;;;10.07;72.92
69223;BME280;56514;51.816;-0.026;2023-02-21T07:43:05;101379.75;;;10.11;72.84
69223;BME280;56514;51.816;-0.026;2023-02-21T07:45:50;101380.16;;;10.19;72.39
69223;BME280;56514;51.816;-0.026;2023-02-21T07:48:35;101387.72;;;10.25;72.67
69223;BME280;56514;51.816;-0.026;2023-02-21T07:51:20;101395.13;;;10.34;72.08
69223;BME280;56514;51.816;-0.026;2023-02-21T07:54:06;101388.47;;;10.42;72.15
69223;BME280;56514;51.816;-0.026;2023-02-21T07:56:53;101391.78;;;10.46;71.28
69223;BME280;56514;51.816;-0.026;2023-02-21T07:59:38;101397.66;;;10.51;71.14
69223;BME280;56514;51.816;-0.026;2023-02-21T08:02:23;101395.25;;;10.62;70.72
69223;BME280;56514;51.816;-0.026;2023-02-21T08:05:08;101399.16;;;10.71;70.90
69223;BME280;56514;51.816;-0.026;2023-02-21T08:07:54;101394.56;;;10.74;70.27
69223;BME280;56514;51.816;-0.026;2023-02-21T08:10:39;101398.91;;;10.75;69.56
69223;BME280;56514;51.816;-0.026;2023-02-21T08:13:24;101388.06;;;10.80;69.73
69223;BME280;56514;51.816;-0.026;2023-02-21T08:16:09;101391.69;;;10.93;69.84
69223;BME280;56514;51.816;-0.026;2023-02-21T08:18:54;101396.00;;;11.09;69.58
69223;BME280;56514;51.816;-0.026;2023-02-21T08:21:46;101406.56;;;11.23;69.16
69223;BME280;56514;51.816;-0.026;2023-02-21T08:24:34;101397.88;;;11.35;69.40
69223;BME280;56514;51.816;-0.026;2023-02-21T08:27:19;101400.16;;;11.41;68.62
69223;BME280;56514;51.816;-0.026;2023-02-21T08:30:04;101392.13;;;11.43;67.28
69223;BME280;56514;51.816;-0.026;2023-02-21T08:32:49;101394.78;;;11.43;67.85
69223;BME280;56514;51.816;-0.026;2023-02-21T08:35:35;101381.75;;;11.40;67.78
69223;BME280;56514;51.816;-0.026;2023-02-21T08:38:20;101383.47;;;11.41;67.19
69223;BME280;56514;51.816;-0.026;2023-02-21T08:41:05;101388.09;;;11.37;67.21
69223;BME280;56514;51.816;-0.026;2023-02-21T08:43:50;101386.75;;;11.44;67.48
69223;BME280;56514;51.816;-0.026;2023-02-21T08:46:36;101387.16;;;11.52;65.96
69223;BME280;56514;51.816;-0.026;2023-02-21T08:49:22;101392.13;;;11.43;65.82
69223;BME280;56514;51.816;-0.026;2023-02-21T08:52:07;101391.78;;;11.35;66.55
69223;BME280;56514;51.816;-0.026;2023-02-21T08:54:53;101387.53;;;11.46;66.73
69223;BME280;56514;51.816;-0.026;2023-02-21T08:57:38;101388.69;;;11.56;65.41
69223;BME280;56514;51.816;-0.026;2023-02-21T09:00:24;101392.25;;;11.55;66.12
69223;BME280;56514;51.816;-0.026;2023-02-21T09:03:11;101383.50;;;11.69;65.47
69223;BME280;56514;51.816;-0.026;2023-02-21T09:05:57;101372.56;;;11.75;64.39
69223;BME280;56514;51.816;-0.026;2023-02-21T09:08:43;101371.34;;;11.80;64.47
69223;BME280;56514;51.816;-0.026;2023-02-21T09:11:28;101373.69;;;11.85;63.24
69223;BME280;56514;51.816;-0.026;2023-02-21T09:14:14;101366.03;;;11.80;63.92
69223;BME280;56514;51.816;-0.026;2023-02-21T09:16:58;101372.56;;;11.75;63.70
69223;BME280;56514;51.816;-0.026;2023-02-21T09:19:43;101369.63;;;11.79;64.48
69223;BME280;56514;51.816;-0.026;2023-02-21T09:22:28;101361.66;;;11.93;64.31
69223;BME280;56514;51.816;-0.026;2023-02-21T09:25:17;101364.41;;;12.06;63.37
69223;BME280;56514;51.816;-0.026;2023-02-21T09:28:03;101370.84;;;12.02;63.41
69223;BME280;56514;51.816;-0.026;2023-02-21T09:30:48;101369.97;;;12.01;63.32
69223;BME280;56514;51.816;-0.026;2023-02-21T09:33:36;101369.97;;;12.01;63.95
69223;BME280;56514;51.816;-0.026;2023-02-21T09:36:24;101369.13;;;12.01;63.31
69223;BME280;56514;51.816;-0.026;2023-02-21T09:39:09;101371.97;;;11.98;63.06
69223;BME280;56514;51.816;-0.026;2023-02-21T09:41:54;101371.84;;;11.99;62.25
69223;BME280;56514;51.816;-0.026;2023-02-21T09:44:41;101365.66;;;11.86;62.63
69223;BME280;56514;51.816;-0.026;2023-02-21T09:47:34;101366.91;;;11.67;63.44
69223;BME280;56514;51.816;-0.026;2023-02-21T09:50:24;101363.78;;;11.74;63.24
69223;BME280;56514;51.816;-0.026;2023-02-21T09:53:15;101371.72;;;11.74;63.20
69223;BME280;56514;51.816;-0.026;2023-02-21T09:56:17;101367.84;;;11.80;63.84
69223;BME280;56514;51.816;-0.026;2023-02-21T09:59:10;101361.84;;;12.04;63.48
69223;BME280;56514;51.816;-0.026;2023-02-21T10:08:27;101369.97;;;12.01;61.79
69223;BME280;56514;51.816;-0.026;2023-02-21T10:11:53;101361.03;;;11.90;62.73
69223;BME280;56514;51.816;-0.026;2023-02-21T10:17:50;101349.22;;;11.95;62.56
69223;BME280;56514;51.816;-0.026;2023-02-21T10:21:03;101355.47;;;11.94;63.30
69223;BME280;56514;51.816;-0.026;2023-02-21T10:23:56;101351.75;;;11.97;62.83
69223;BME280;56514;51.816;-0.026;2023-02-21T10:27:03;101338.00;;;12.18;62.98
69223;BME280;56514;51.816;-0.026;2023-02-21T10:30:05;101336.44;;;12.55;62.43
69223;BME280;56514;51.816;-0.026;2023-02-21T10:32:55;101347.09;;;12.93;60.59
69223;BME280;56514;51.816;-0.026;2023-02-21T10:35:40;101342.78;;;12.92;59.98
69223;BME280;56514;51.816;-0.026;2023-02-21T10:38:25;101342.09;;;12.76;59.70
69223;BME280;56514;51.816;-0.026;2023-02-21T10:41:11;101337.94;;;12.59;60.95
69223;BME280;56514;51.816;-0.026;2023-02-21T10:44:11;101332.22;;;12.65;61.21
69223;BME280;56514;51.816;-0.026;2023-02-21T10:47:08;101333.84;;;12.80;60.61
69223;BME280;56514;51.816;-0.026;2023-02-21T10:50:06;101337.16;;;12.84;59.85
69223;BME280;56514;51.816;-0.026;2023-02-21T10:52:52;101337.31;;;12.68;60.13
69223;BME280;56514;51.816;-0.026;2023-02-21T10:55:37;101336.44;;;12.55;60.86
69223;BME280;56514;51.816;-0.026;2023-02-21T10:58:26;101329.47;;;12.67;61.21
69223;BME280;56514;51.816;-0.026;2023-02-21T11:04:24;101327.66;;;13.06;60.55
69223;BME280;56514;51.816;-0.026;2023-02-21T11:07:12;101323.22;;;13.19;60.11
69223;BME280;56514;51.816;-0.026;2023-02-21T11:09:59;101324.16;;;13.31;60.31
69223;BME280;56514;51.816;-0.026;2023-02-21T11:13:00;101331.38;;;13.41;59.96
69223;BME280;56514;51.816;-0.026;2023-02-21T11:15:46;101319.06;;;13.53;59.56
69223;BME280;56514;51.816;-0.026;2023-02-21T11:18:32;101326.59;;;13.46;59.09
69223;BME280;56514;51.816;-0.026;2023-02-21T11:21:18;101317.59;;;13.36;58.92
69223;BME280;56514;51.816;-0.026;2023-02-21T11:24:04;101321.53;;;13.31;58.99
69223;BME280;56514;51.816;-0.026;2023-02-21T11:26:52;101310.81;;;13.20;59.27
69223;BME280;56514;51.816;-0.026;2023-02-21T11:29:41;101310.84;;;13.07;60.12
69223;BME280;56514;51.816;-0.026;2023-02-21T11:32:31;101311.88;;;13.17;59.40
69223;BME280;56514;51.816;-0.026;2023-02-21T11:38:06;101312.78;;;12.91;59.81
69223;BME280;56514;51.816;-0.026;2023-02-21T11:40:53;101307.38;;;12.80;60.43
69223;BME280;56514;51.816;-0.026;2023-02-21T11:43:45;101309.28;;;12.91;59.72
69223;BME280;56514;51.816;-0.026;2023-02-21T11:46:55;101291.75;;;13.02;60.22
69223;BME280;56514;51.816;-0.026;2023-02-21T11:53:01;101290.34;;;13.47;58.00
69223;BME280;56514;51.816;-0.026;2023-02-21T11:56:10;101277.72;;;13.38;58.47
69223;BME280;56514;51.816;-0.026;2023-02-21T12:11:45;101268.09;;;13.24;59.19
69223;BME280;56514;51.816;-0.026;2023-02-21T12:14:36;101268.22;;;13.23;58.88
69223;BME280;56514;51.816;-0.026;2023-02-21T12:27:08;101244.88;;;13.40;58.51
69223;BME280;56514;51.816;-0.026;2023-02-21T12:42:34;101223.88;;;13.50;58.39
69223;BME280;56514;51.816;-0.026;2023-02-21T12:45:50;101216.84;;;13.49;58.57
69223;BME280;56514;51.816;-0.026;2023-02-21T12:52:14;101201.38;;;13.55;59.43
69223;BME280;56514;51.816;-0.026;2023-02-21T12:55:19;101192.47;;;13.80;59.08
69223;BME280;56514;51.816;-0.026;2023-02-21T13:01:16;101179.50;;;13.99;58.07
69223;BME280;56514;51.816;-0.026;2023-02-21T13:04:21;101179.84;;;14.18;57.71
69223;BME280;56514;51.816;-0.026;2023-02-21T13:07:49;101172.91;;;14.28;58.09
69223;BME280;56514;51.816;-0.026;2023-02-21T13:11:17;101160.44;;;14.74;57.94
69223;BME280;56514;51.816;-0.026;2023-02-21T13:14:16;101148.41;;;15.35;55.73
69223;BME280;56514;51.816;-0.026;2023-02-21T13:17:02;101142.63;;;15.41;54.68
69223;BME280;56514;51.816;-0.026;2023-02-21T13:19:52;101147.69;;;15.33;54.95
69223;BME280;56514;51.816;-0.026;2023-02-21T13:32:15;101133.03;;;15.07;54.86
69223;BME280;56514;51.816;-0.026;2023-02-21T13:35:01;101125.19;;;14.83;54.99
69223;BME280;56514;51.816;-0.026;2023-02-21T13:37:52;101128.06;;;14.80;55.58
69223;BME280;56514;51.816;-0.026;2023-02-21T13:40:44;101122.53;;;14.94;55.65
69223;BME280;56514;51.816;-0.026;2023-02-21T13:43:36;101114.28;;;16.14;53.90
69223;BME280;56514;51.816;-0.026;2023-02-21T13:49:52;101110.50;;;16.37;52.45
69223;BME280;56514;51.816;-0.026;2023-02-21T13:52:52;101100.00;;;17.55;50.07
69223;BME280;56514;51.816;-0.026;2023-02-21T13:58:51;101084.94;;;19.20;45.15
69223;BME280;56514;51.816;-0.026;2023-02-21T14:07:47;101068.78;;;21.76;41.14
69223;BME280;56514;51.816;-0.026;2023-02-21T14:10:54;101072.75;;;21.56;39.07
69223;BME280;56514;51.816;-0.026;2023-02-21T14:14:00;101068.88;;;21.43;39.71
69223;BME280;56514;51.816;-0.026;2023-02-21T14:16:51;101051.44;;;21.55;39.33
69223;BME280;56514;51.816;-0.026;2023-02-21T14:19:41;101052.97;;;21.97;39.07
69223;BME280;56514;51.816;-0.026;2023-02-21T14:22:29;101049.31;;;21.90;38.62
69223;BME280;56514;51.816;-0.026;2023-02-21T14:25:21;101045.59;;;21.91;38.53
69223;BME280;56514;51.816;-0.026;2023-02-21T14:37:44;101033.75;;;22.40;37.58
69223;BME280;56514;51.816;-0.026;2023-02-21T14:40:51;101026.66;;;23.33;36.17
69223;BME280;56514;51.816;-0.026;2023-02-21T14:46:58;101020.97;;;24.25;34.10
69223;BME280;56514;51.816;-0.026;2023-02-21T14:49:54;101027.41;;;24.53;33.49
69223;BME280;56514;51.816;-0.026;2023-02-21T14:53:05;101020.19;;;24.01;33.46
69223;BME280;56514;51.816;-0.026;2023-02-21T15:02:29;101017.13;;;23.67;34.59
69223;BME280;56514;51.816;-0.026;2023-02-21T15:08:46;101007.34;;;22.91;35.43
69223;BME280;56514;51.816;-0.026;2023-02-21T15:11:37;101015.56;;;22.97;36.18
69223;BME280;56514;51.816;-0.026;2023-02-21T15:14:30;101017.78;;;23.24;35.25
69223;BME280;56514;51.816;-0.026;2023-02-21T15:17:21;101012.03;;;23.50;34.99
69223;BME280;56514;51.816;-0.026;2023-02-21T15:20:16;101008.53;;;22.96;35.42
69223;BME280;56514;51.816;-0.026;2023-02-21T15:23:14;101010.00;;;21.33;37.70
69223;BME280;56514;51.816;-0.026;2023-02-21T15:26:15;101003.97;;;19.89;40.37
69223;BME280;56514;51.816;-0.026;2023-02-21T15:29:12;100998.09;;;18.80;43.27
69223;BME280;56514;51.816;-0.026;2023-02-21T15:31:58;101005.53;;;18.59;44.23
69223;BME280;56514;51.816;-0.026;2023-02-21T15:34:45;101008.25;;;18.49;44.53
69223;BME280;56514;51.816;-0.026;2023-02-21T15:37:37;101003.13;;;17.54;46.60
69223;BME280;56514;51.816;-0.026;2023-02-21T15:40:24;101003.44;;;16.73;48.58
69223;BME280;56514;51.816;-0.026;2023-02-21T15:43:22;100995.44;;;16.04;50.45
69223;BME280;56514;51.816;-0.026;2023-02-21T15:46:11;100995.50;;;15.51;52.37
69223;BME280;56514;51.816;-0.026;2023-02-21T15:48:59;101002.81;;;15.07;53.84
69223;BME280;56514;51.816;-0.026;2023-02-21T15:51:45;100988.31;;;14.68;55.00
69223;BME280;56514;51.816;-0.026;2023-02-21T15:54:35;100999.44;;;14.40;55.97
69223;BME280;56514;51.816;-0.026;2023-02-21T15:57:27;101001.63;;;14.24;56.41
69223;BME280;56514;51.816;-0.026;2023-02-21T16:00:17;101003.16;;;14.04;56.77
69223;BME280;56514;51.816;-0.026;2023-02-21T16:03:32;100988.91;;;14.05;57.21
69223;BME280;56514;51.816;-0.026;2023-02-21T16:06:29;100992.41;;;13.95;57.82
69223;BME280;56514;51.816;-0.026;2023-02-21T16:09:30;100987.78;;;13.75;58.93
69223;BME280;56514;51.816;-0.026;2023-02-21T16:12:35;100983.50;;;13.50;59.74
69223;BME280;56514;51.816;-0.026;2023-02-21T16:15:32;100981.16;;;13.24;60.21
69223;BME280;56514;51.816;-0.026;2023-02-21T16:18:19;100984.38;;;13.16;60.88
69223;BME280;56514;51.816;-0.026;2023-02-21T16:21:06;100974.56;;;13.06;61.14
69223;BME280;56514;51.816;-0.026;2023-02-21T16:23:51;100985.16;;;13.06;61.56
69223;BME280;56514;51.816;-0.026;2023-02-21T16:26:36;100977.34;;;12.92;61.70
69223;BME280;56514;51.816;-0.026;2023-02-21T16:29:21;100965.72;;;12.82;62.09
69223;BME280;56514;51.816;-0.026;2023-02-21T16:32:15;100960.09;;;12.86;61.78
69223;BME280;56514;51.816;-0.026;2023-02-21T16:35:01;100957.63;;;12.96;61.23
69223;BME280;56514;51.816;-0.026;2023-02-21T16:37:48;100955.50;;;13.01;60.84
69223;BME280;56514;51.816;-0.026;2023-02-21T16:40:34;100952.94;;;13.12;60.89
69223;BME280;56514;51.816;-0.026;2023-02-21T16:43:22;100952.88;;;13.01;60.93
69223;BME280;56514;51.816;-0.026;2023-02-21T16:46:07;100953.56;;;13.03;60.74
69223;BME280;56514;51.816;-0.026;2023-02-21T16:48:54;100953.81;;;13.00;60.90
69223;BME280;56514;51.816;-0.026;2023-02-21T16:51:38;100952.94;;;12.99;60.87
69223;BME280;56514;51.816;-0.026;2023-02-21T16:54:27;100951.34;;;12.97;61.05
69223;BME280;56514;51.816;-0.026;2023-02-21T16:57:11;100944.53;;;12.82;61.28
69223;BME280;56514;51.816;-0.026;2023-02-21T16:59:56;100941.13;;;12.69;62.56
69223;BME280;56514;51.816;-0.026;2023-02-21T17:02:41;100952.81;;;12.54;63.23
69223;BME280;56514;51.816;-0.026;2023-02-21T17:05:27;100952.00;;;12.40;63.92
69223;BME280;56514;51.816;-0.026;2023-02-21T17:08:13;100954.69;;;12.28;63.88